createdAt,value
2023-04-22T00:00:14.919Z,100777.38
2023-04-22T00:02:41.586Z,100780.38
2023-04-22T00:05:08.726Z,100784.28
2023-04-22T00:07:35.319Z,100774.09
2023-04-22T00:10:01.815Z,100775.22
2023-04-22T00:12:28.215Z,100779.41
2023-04-22T00:14:54.627Z,100777.44
2023-04-22T00:17:21.107Z,100776.84
2023-04-22T00:19:47.587Z,100776.47
2023-04-22T00:22:13.997Z,100775.81
2023-04-22T00:24:40.797Z,100780.22
2023-04-22T00:27:08.008Z,100781.66
2023-04-22T00:29:34.412Z,100775.97
2023-04-22T00:32:00.808Z,100779.72
2023-04-22T00:34:27.204Z,100772.75
2023-04-22T00:36:53.630Z,100778.56
2023-04-22T00:39:20.045Z,100784.91
2023-04-22T00:41:46.983Z,100785.06
2023-04-22T00:44:13.489Z,100792.13
2023-04-22T00:46:40.259Z,100791.66
2023-04-22T00:49:07.819Z,100784.81
2023-04-22T00:51:34.432Z,100781.34
2023-04-22T00:54:04.652Z,100776.28
2023-04-22T00:56:31.917Z,100780.50
2023-04-22T00:58:59.519Z,100780.91
2023-04-22T01:01:26.560Z,100777.19
2023-04-22T01:03:53.820Z,100779.66
2023-04-22T01:06:20.510Z,100770.13
2023-04-22T01:08:47.687Z,100771.28
2023-04-22T01:11:14.414Z,100767.66
2023-04-22T01:13:41.239Z,100770.25
2023-04-22T01:16:09.059Z,100764.31
2023-04-22T01:18:36.396Z,100763.03
2023-04-22T01:21:03.202Z,100768.84
2023-04-22T01:23:30.166Z,100766.50
2023-04-22T01:25:57.469Z,100756.03
2023-04-22T01:28:24.619Z,100753.84
2023-04-22T01:30:51.595Z,100759.53
2023-04-22T01:33:18.619Z,100760.16
2023-04-22T01:35:46.256Z,100758.91
2023-04-22T01:38:13.191Z,100768.97
2023-04-22T01:40:39.956Z,100768.44
2023-04-22T01:43:06.591Z,100772.94
2023-04-22T01:45:33.248Z,100770.47
2023-04-22T01:47:59.771Z,100775.88
2023-04-22T01:50:26.327Z,100769.59
2023-04-22T01:52:53.410Z,100768.16
2023-04-22T01:55:19.817Z,100773.31
2023-04-22T01:57:46.255Z,100769.72
2023-04-22T02:00:13.108Z,100766.34
2023-04-22T02:02:40.034Z,100765.84
2023-04-22T02:05:07.926Z,100764.56
2023-04-22T02:07:36.307Z,100766.22
2023-04-22T02:10:05.102Z,100771.59
2023-04-22T02:12:32.274Z,100765.94
2023-04-22T02:14:59.265Z,100760.16
2023-04-22T02:17:25.858Z,100769.72
2023-04-22T02:19:52.269Z,100776.41
2023-04-22T02:22:18.710Z,100778.72
2023-04-22T02:24:45.268Z,100776.16
2023-04-22T02:27:11.786Z,100775.88
2023-04-22T02:29:38.826Z,100770.22
2023-04-22T02:32:05.452Z,100780.88
2023-04-22T02:34:31.888Z,100775.19
2023-04-22T02:36:58.320Z,100775.34
2023-04-22T02:39:25.765Z,100777.13
2023-04-22T02:41:52.183Z,100774.50
2023-04-22T02:44:18.641Z,100779.75
2023-04-22T02:46:45.198Z,100774.19
2023-04-22T02:49:11.663Z,100778.25
2023-04-22T02:51:39.153Z,100778.41
2023-04-22T02:54:05.658Z,100780.47
2023-04-22T02:56:32.050Z,100778.53
2023-04-22T02:58:58.446Z,100789.44
2023-04-22T03:01:24.970Z,100791.22
2023-04-22T03:03:51.528Z,100795.50
2023-04-22T03:06:18.384Z,100790.00
2023-04-22T03:08:44.798Z,100786.56
2023-04-22T03:11:11.207Z,100780.28
2023-04-22T03:13:37.604Z,100788.56
2023-04-22T03:16:04.056Z,100777.06
2023-04-22T03:18:30.515Z,100783.13
2023-04-22T03:20:57.011Z,100777.56
2023-04-22T03:23:23.428Z,100779.09
2023-04-22T03:25:49.837Z,100776.28
2023-04-22T03:28:16.212Z,100786.31
2023-04-22T03:30:42.609Z,100786.31
2023-04-22T03:33:09.275Z,100777.53
2023-04-22T03:35:35.673Z,100781.16
2023-04-22T03:38:02.095Z,100783.44
2023-04-22T03:40:28.476Z,100779.06
2023-04-22T03:42:54.982Z,100780.13
2023-04-22T03:45:21.542Z,100785.91
2023-04-22T03:47:47.987Z,100785.28
2023-04-22T03:50:14.400Z,100783.72
2023-04-22T03:52:40.800Z,100783.09
2023-04-22T03:55:07.558Z,100786.88
2023-04-22T03:57:33.994Z,100785.28
2023-04-22T04:00:00.474Z,100781.78
2023-04-22T04:02:27.040Z,100777.22
2023-04-22T04:04:53.835Z,100777.78
2023-04-22T04:07:20.676Z,100774.06
2023-04-22T04:09:47.091Z,100782.44
2023-04-22T04:12:13.486Z,100780.91
2023-04-22T04:14:39.924Z,100791.69
2023-04-22T04:17:10.104Z,100787.72
2023-04-22T04:19:38.189Z,100779.78
2023-04-22T04:22:05.064Z,100777.28
2023-04-22T04:24:31.504Z,100774.44
2023-04-22T04:26:58.072Z,100771.91
2023-04-22T04:29:25.185Z,100775.84
2023-04-22T04:31:51.850Z,100773.88
2023-04-22T04:34:19.127Z,100766.50
2023-04-22T04:36:46.443Z,100773.00
2023-04-22T04:39:12.865Z,100774.56
2023-04-22T04:41:41.158Z,100776.44
2023-04-22T04:44:07.542Z,100779.00
2023-04-22T04:46:34.692Z,100775.53
2023-04-22T04:49:02.519Z,100786.47
2023-04-22T04:51:28.949Z,100786.09
2023-04-22T04:53:55.551Z,100791.47
2023-04-22T04:56:21.932Z,100794.25
2023-04-22T04:58:48.378Z,100799.09
2023-04-22T05:01:14.831Z,100803.06
2023-04-22T05:03:41.382Z,100801.16
2023-04-22T05:06:08.032Z,100804.00
2023-04-22T05:08:34.589Z,100805.53
2023-04-22T05:11:00.980Z,100805.97
2023-04-22T05:13:27.692Z,100806.78
2023-04-22T05:15:54.112Z,100809.22
2023-04-22T05:18:21.782Z,100812.41
2023-04-22T05:20:48.308Z,100815.63
2023-04-22T05:23:14.750Z,100816.25
2023-04-22T05:25:41.229Z,100812.00
2023-04-22T05:28:07.682Z,100822.84
2023-04-22T05:30:34.150Z,100822.91
2023-04-22T05:33:00.652Z,100830.91
2023-04-22T05:35:27.363Z,100836.53
2023-04-22T05:37:53.767Z,100834.09
2023-04-22T05:40:20.280Z,100838.50
2023-04-22T05:42:46.677Z,100836.06
2023-04-22T05:45:13.292Z,100832.72
2023-04-22T05:47:39.718Z,100839.31
2023-04-22T05:50:06.889Z,100838.53
2023-04-22T05:52:33.299Z,100827.69
2023-04-22T05:54:59.736Z,100819.28
2023-04-22T05:57:26.154Z,100818.16
2023-04-22T05:59:52.635Z,100822.84
2023-04-22T06:02:19.159Z,100820.53
2023-04-22T06:04:46.059Z,100817.47
2023-04-22T06:07:12.730Z,100815.56
2023-04-22T06:09:39.379Z,100826.63
2023-04-22T06:12:06.225Z,100830.91
2023-04-22T06:14:32.627Z,100837.13
2023-04-22T06:16:59.541Z,100832.81
2023-04-22T06:19:26.054Z,100834.00
2023-04-22T06:21:52.891Z,100834.41
2023-04-22T06:24:19.460Z,100842.63
2023-04-22T06:26:45.941Z,100840.31
2023-04-22T06:29:12.401Z,100836.69
2023-04-22T06:31:38.990Z,100844.91
2023-04-22T06:34:05.860Z,100846.94
2023-04-22T06:36:37.170Z,100846.69
2023-04-22T06:39:05.396Z,100853.94
2023-04-22T06:41:32.913Z,100858.75
2023-04-22T06:43:59.599Z,100860.69
2023-04-22T06:46:26.028Z,100855.31
2023-04-22T06:48:56.682Z,100854.59
2023-04-22T06:51:23.102Z,100846.72
2023-04-22T06:53:49.568Z,100842.72
2023-04-22T06:56:16.111Z,100839.75
2023-04-22T06:58:42.529Z,100840.66
2023-04-22T07:01:09.140Z,100845.56
2023-04-22T07:03:36.034Z,100841.81
2023-04-22T07:06:02.772Z,100839.34
2023-04-22T07:08:29.257Z,100847.47
2023-04-22T07:10:57.787Z,100858.66
2023-04-22T07:13:24.249Z,100852.09
2023-04-22T07:15:50.654Z,100852.47
2023-04-22T07:18:17.068Z,100852.69
2023-04-22T07:20:43.489Z,100853.69
2023-04-22T07:23:09.918Z,100860.16
2023-04-22T07:25:36.436Z,100849.53
2023-04-22T07:28:02.917Z,100849.31
2023-04-22T07:30:29.339Z,100851.59
2023-04-22T07:32:55.802Z,100851.19
2023-04-22T07:35:22.344Z,100845.31
2023-04-22T07:37:48.825Z,100856.19
2023-04-22T07:40:15.346Z,100857.13
2023-04-22T07:42:41.903Z,100862.09
2023-04-22T07:45:09.688Z,100847.59
2023-04-22T07:47:36.231Z,100848.19
2023-04-22T07:50:03.047Z,100859.44
2023-04-22T07:52:30.078Z,100855.78
2023-04-22T07:54:56.692Z,100857.84
2023-04-22T07:57:23.959Z,100855.19
2023-04-22T07:59:52.039Z,100849.25
2023-04-22T08:02:18.736Z,100850.63
2023-04-22T08:04:45.278Z,100845.00
2023-04-22T08:09:41.367Z,100852.03
2023-04-22T08:12:07.900Z,100846.34
2023-04-22T08:14:34.360Z,100845.47
2023-04-22T08:17:00.758Z,100842.56
2023-04-22T08:19:27.144Z,100845.72
2023-04-22T08:21:53.570Z,100844.63
2023-04-22T08:24:20.038Z,100854.91
2023-04-22T08:26:46.491Z,100850.31
2023-04-22T08:29:13.575Z,100842.75
2023-04-22T08:31:40.063Z,100847.25
2023-04-22T08:34:06.742Z,100838.44
2023-04-22T08:36:33.280Z,100839.38
2023-04-22T08:38:59.786Z,100832.25
2023-04-22T08:41:26.448Z,100834.63
2023-04-22T08:43:53.523Z,100826.34
2023-04-22T08:46:20.247Z,100830.63
2023-04-22T08:48:50.760Z,100832.59
2023-04-22T08:51:17.837Z,100832.81
2023-04-22T08:53:44.887Z,100829.44
2023-04-22T08:56:14.900Z,100826.03
2023-04-22T08:58:42.224Z,100829.97
2023-04-22T09:01:09.405Z,100830.06
2023-04-22T09:03:39.124Z,100834.47
2023-04-22T09:06:06.574Z,100834.78
2023-04-22T09:08:33.561Z,100829.28
2023-04-22T09:11:00.277Z,100841.31
2023-04-22T09:13:27.685Z,100838.84
2023-04-22T09:15:54.151Z,100827.56
2023-04-22T09:18:23.118Z,100829.16
2023-04-22T09:20:54.300Z,100823.97
2023-04-22T09:23:20.841Z,100833.53
2023-04-22T09:25:47.913Z,100819.72
2023-04-22T09:28:18.978Z,100819.16
2023-04-22T09:30:46.291Z,100821.06
2023-04-22T09:33:14.044Z,100812.56
2023-04-22T09:35:42.372Z,100818.38
2023-04-22T09:38:11.201Z,100810.28
2023-04-22T09:40:43.080Z,100811.97
2023-04-22T09:43:10.799Z,100802.78
2023-04-22T09:45:39.361Z,100806.97
2023-04-22T09:48:22.623Z,100806.91
2023-04-22T09:50:59.471Z,100802.41
2023-04-22T09:53:30.310Z,100800.44
2023-04-22T09:55:56.969Z,100800.34
2023-04-22T09:58:28.072Z,100794.16
2023-04-22T10:00:57.530Z,100796.13
2023-04-22T10:03:24.514Z,100788.47
2023-04-22T10:05:51.247Z,100786.47
2023-04-22T10:08:17.802Z,100784.72
2023-04-22T10:10:44.788Z,100786.63
2023-04-22T10:13:11.875Z,100778.19
2023-04-22T10:15:50.532Z,100778.66
2023-04-22T10:18:21.671Z,100777.47
2023-04-22T10:20:49.966Z,100780.09
2023-04-22T10:23:22.067Z,100774.94
2023-04-22T10:25:57.639Z,100768.19
2023-04-22T10:28:28.526Z,100766.31
2023-04-22T10:30:55.034Z,100767.69
2023-04-22T10:33:21.598Z,100765.59
2023-04-22T10:36:06.224Z,100768.28
2023-04-22T10:38:40.404Z,100756.25
2023-04-22T10:41:07.494Z,100755.38
2023-04-22T10:43:48.015Z,100757.09
2023-04-22T10:46:32.919Z,100755.63
2023-04-22T10:49:06.860Z,100744.41
2023-04-22T10:51:47.723Z,100750.97
2023-04-22T10:54:28.073Z,100754.91
2023-04-22T10:57:19.160Z,100749.59
2023-04-22T10:59:53.193Z,100739.69
2023-04-22T11:02:21.131Z,100744.25
2023-04-22T11:04:48.436Z,100745.41
2023-04-22T11:07:22.693Z,100737.88
2023-04-22T11:09:51.926Z,100735.47
2023-04-22T11:12:39.667Z,100733.50
2023-04-22T11:15:16.162Z,100737.09
2023-04-22T11:17:44.485Z,100728.00
2023-04-22T11:20:18.570Z,100732.53
2023-04-22T11:22:56.069Z,100729.50
2023-04-22T11:25:24.710Z,100725.09
2023-04-22T11:27:52.660Z,100722.06
2023-04-22T11:30:21.656Z,100724.78
2023-04-22T11:32:51.388Z,100720.81
2023-04-22T11:35:20.584Z,100718.06
2023-04-22T11:37:52.503Z,100719.75
2023-04-22T11:40:30.548Z,100718.75
2023-04-22T11:43:01.196Z,100714.19
2023-04-22T11:45:30.067Z,100718.63
2023-04-22T11:47:56.967Z,100710.47
2023-04-22T11:50:29.608Z,100708.19
2023-04-22T11:52:57.023Z,100701.97
2023-04-22T11:55:35.318Z,100696.41
2023-04-22T11:58:05.330Z,100693.25
2023-04-22T12:00:37.078Z,100689.91
2023-04-22T12:03:24.714Z,100682.88
2023-04-22T12:05:58.338Z,100682.31
2023-04-22T12:08:31.372Z,100679.81
2023-04-22T12:11:00.540Z,100682.94
2023-04-22T12:13:33.018Z,100683.34
2023-04-22T12:16:06.925Z,100689.22
2023-04-22T12:18:38.414Z,100682.28
2023-04-22T12:21:04.761Z,100674.06
2023-04-22T12:23:50.736Z,100674.84
2023-04-22T12:26:18.614Z,100670.88
2023-04-22T12:28:46.110Z,100671.53
2023-04-22T12:31:14.710Z,100673.03
2023-04-22T12:33:41.571Z,100664.25
2023-04-22T12:36:08.102Z,100666.31
2023-04-22T12:38:34.934Z,100670.34
2023-04-22T12:41:02.674Z,100662.97
2023-04-22T12:43:29.197Z,100657.69
2023-04-22T12:45:57.017Z,100658.72
2023-04-22T12:48:23.478Z,100658.53
2023-04-22T12:50:50.011Z,100652.78
2023-04-22T12:53:16.632Z,100650.16
2023-04-22T12:55:45.919Z,100646.94
2023-04-22T12:58:12.773Z,100642.72
2023-04-22T13:00:39.176Z,100637.66
2023-04-22T13:03:05.757Z,100640.66
2023-04-22T13:05:32.695Z,100632.44
2023-04-22T13:08:06.650Z,100633.56
2023-04-22T13:10:34.985Z,100634.53
2023-04-22T13:13:17.072Z,100620.16
2023-04-22T13:15:54.053Z,100628.25
2023-04-22T13:18:23.491Z,100624.22
2023-04-22T13:20:50.087Z,100631.31
2023-04-22T13:23:17.182Z,100624.94
2023-04-22T13:25:44.196Z,100612.75
2023-04-22T13:28:11.479Z,100613.19
2023-04-22T13:30:38.568Z,100620.34
2023-04-22T13:33:04.989Z,100610.97
2023-04-22T13:35:31.522Z,100611.47
2023-04-22T13:37:58.170Z,100608.41
2023-04-22T13:40:26.614Z,100607.84
2023-04-22T13:42:53.530Z,100601.41
2023-04-22T13:45:20.068Z,100597.16
2023-04-22T13:47:46.947Z,100594.69
2023-04-22T13:50:13.423Z,100593.63
2023-04-22T13:52:39.957Z,100593.34
2023-04-22T13:55:06.887Z,100588.13
2023-04-22T13:57:33.277Z,100587.22
2023-04-22T14:00:00.075Z,100577.34
2023-04-22T14:02:26.659Z,100582.34
2023-04-22T14:04:53.197Z,100580.13
2023-04-22T14:07:19.741Z,100578.88
2023-04-22T14:09:46.135Z,100579.47
2023-04-22T14:12:12.876Z,100580.97
2023-04-22T14:14:39.480Z,100577.34
2023-04-22T14:17:06.004Z,100577.72
2023-04-22T14:19:32.737Z,100579.94
2023-04-22T14:21:59.240Z,100574.16
2023-04-22T14:24:25.957Z,100574.16
2023-04-22T14:26:52.800Z,100564.88
2023-04-22T14:29:19.895Z,100562.53
2023-04-22T14:31:46.454Z,100561.72
2023-04-22T14:34:13.223Z,100550.78
2023-04-22T14:36:39.718Z,100559.06
2023-04-22T14:39:06.155Z,100552.97
2023-04-22T14:41:32.632Z,100551.66
2023-04-22T14:43:59.078Z,100560.78
2023-04-22T14:46:25.709Z,100551.16
2023-04-22T14:48:52.146Z,100551.22
2023-04-22T14:51:18.609Z,100553.66
2023-04-22T14:53:45.162Z,100553.59
2023-04-22T14:56:11.991Z,100555.31
2023-04-22T14:58:38.600Z,100548.44
2023-04-22T15:01:07.401Z,100551.97
2023-04-22T15:03:35.833Z,100549.13
2023-04-22T15:06:02.587Z,100546.84
2023-04-22T15:08:28.993Z,100552.16
2023-04-22T15:10:55.685Z,100553.31
2023-04-22T15:13:22.194Z,100545.63
2023-04-22T15:15:48.709Z,100543.69
2023-04-22T15:18:15.166Z,100540.38
2023-04-22T15:20:41.714Z,100536.59
2023-04-22T15:23:08.122Z,100534.06
2023-04-22T15:25:35.674Z,100542.63
2023-04-22T15:28:02.631Z,100536.38
2023-04-22T15:30:29.084Z,100540.78
2023-04-22T15:32:55.706Z,100534.03
2023-04-22T15:35:23.742Z,100534.03
2023-04-22T15:37:50.363Z,100530.03
2023-04-22T15:40:16.811Z,100533.09
2023-04-22T15:42:43.336Z,100535.13
2023-04-22T15:45:10.182Z,100534.44
2023-04-22T15:47:37.977Z,100531.66
2023-04-22T15:50:09.038Z,100534.72
2023-04-22T15:52:37.501Z,100530.53
2023-04-22T15:55:05.163Z,100538.28
2023-04-22T15:57:34.472Z,100534.44
2023-04-22T16:00:13.719Z,100531.63
2023-04-22T16:02:41.869Z,100527.88
2023-04-22T16:05:08.757Z,100531.69
2023-04-22T16:07:35.440Z,100528.63
2023-04-22T16:10:02.352Z,100532.88
2023-04-22T16:12:28.838Z,100528.84
2023-04-22T16:14:55.263Z,100528.28
2023-04-22T16:17:21.773Z,100527.38
2023-04-22T16:19:48.814Z,100534.09
2023-04-22T16:22:15.205Z,100528.81
2023-04-22T16:24:43.992Z,100539.84
2023-04-22T16:27:15.982Z,100536.47
2023-04-22T16:29:42.620Z,100532.16
2023-04-22T16:32:09.583Z,100535.59
2023-04-22T16:34:36.795Z,100533.50
2023-04-22T16:37:04.172Z,100535.66
2023-04-22T16:39:31.092Z,100541.06
2023-04-22T16:41:57.570Z,100537.19
2023-04-22T16:44:23.978Z,100540.31
2023-04-22T16:46:50.378Z,100539.94
2023-04-22T16:49:16.777Z,100541.34
2023-04-22T16:51:43.146Z,100536.53
2023-04-22T16:54:09.622Z,100539.75
2023-04-22T16:56:36.111Z,100544.00
2023-04-22T16:59:02.501Z,100541.28
2023-04-22T17:01:29.964Z,100530.19
2023-04-22T17:03:57.073Z,100536.25
2023-04-22T17:06:24.208Z,100539.56
2023-04-22T17:08:52.454Z,100538.44
2023-04-22T17:11:19.082Z,100541.56
2023-04-22T17:13:45.628Z,100543.19
2023-04-22T17:16:12.073Z,100536.00
2023-04-22T17:18:38.494Z,100532.28
2023-04-22T17:21:04.943Z,100543.38
2023-04-22T17:23:31.728Z,100539.78
2023-04-22T17:25:59.434Z,100545.63
2023-04-22T17:28:26.493Z,100548.00
2023-04-22T17:30:53.167Z,100543.50
2023-04-22T17:33:19.693Z,100546.03
2023-04-22T17:35:46.118Z,100536.34
2023-04-22T17:38:14.084Z,100544.00
2023-04-22T17:40:40.668Z,100543.84
2023-04-22T17:43:07.093Z,100548.94
2023-04-22T17:45:33.627Z,100542.84
2023-04-22T17:48:00.061Z,100550.56
2023-04-22T17:50:26.594Z,100547.91
2023-04-22T17:52:53.113Z,100550.34
2023-04-22T17:55:19.567Z,100552.88
2023-04-22T17:57:45.964Z,100558.00
2023-04-22T18:00:16.888Z,100563.06
2023-04-22T18:02:43.586Z,100557.66
2023-04-22T18:05:10.281Z,100558.38
2023-04-22T18:07:36.711Z,100556.63
2023-04-22T18:10:03.249Z,100559.13
2023-04-22T18:12:30.824Z,100559.13
2023-04-22T18:14:57.944Z,100558.13
2023-04-22T18:17:24.435Z,100566.78
2023-04-22T18:19:51.224Z,100560.50
2023-04-22T18:22:18.750Z,100565.63
2023-04-22T18:24:45.221Z,100562.13
2023-04-22T18:27:11.606Z,100568.16
2023-04-22T18:29:38.481Z,100567.97
2023-04-22T18:32:05.235Z,100576.69
2023-04-22T18:34:31.756Z,100576.50
2023-04-22T18:36:58.162Z,100576.50
2023-04-22T18:39:24.677Z,100567.91
2023-04-22T18:41:51.773Z,100573.84
2023-04-22T18:44:19.206Z,100574.63
2023-04-22T18:46:45.754Z,100574.56
2023-04-22T18:49:12.143Z,100584.00
2023-04-22T18:51:39.957Z,100583.81
2023-04-22T18:54:08.277Z,100580.22
2023-04-22T18:56:34.752Z,100586.41
2023-04-22T18:59:01.148Z,100581.94
2023-04-22T19:01:28.201Z,100588.69
2023-04-22T19:03:54.751Z,100593.00
2023-04-22T19:06:21.228Z,100591.22
2023-04-22T19:08:48.740Z,100594.59
2023-04-22T19:11:17.029Z,100592.94
2023-04-22T19:13:44.271Z,100599.91
2023-04-22T19:16:11.008Z,100593.66
2023-04-22T19:18:38.545Z,100596.06
2023-04-22T19:21:06.826Z,100602.09
2023-04-22T19:23:34.332Z,100597.63
2023-04-22T19:26:01.852Z,100603.56
2023-04-22T19:28:28.644Z,100597.25
2023-04-22T19:30:55.513Z,100603.44
2023-04-22T19:33:21.986Z,100602.63
2023-04-22T19:35:48.382Z,100604.34
2023-04-22T19:38:18.957Z,100598.78
2023-04-22T19:40:48.517Z,100601.81
2023-04-22T19:43:16.939Z,100609.34
2023-04-22T19:45:43.391Z,100616.72
2023-04-22T19:48:10.534Z,100613.84
2023-04-22T19:50:37.214Z,100618.16
2023-04-22T19:53:04.597Z,100607.56
2023-04-22T19:55:33.614Z,100609.09
2023-04-22T19:58:00.658Z,100608.00
2023-04-22T20:00:27.229Z,100609.56
2023-04-22T20:02:54.077Z,100607.47
2023-04-22T20:05:22.108Z,100607.19
2023-04-22T20:07:49.748Z,100607.66
2023-04-22T20:10:16.661Z,100608.38
2023-04-22T20:12:47.278Z,100604.78
2023-04-22T20:15:14.025Z,100607.19
2023-04-22T20:17:40.851Z,100602.50
2023-04-22T20:20:14.626Z,100605.81
2023-04-22T20:22:42.781Z,100603.13
2023-04-22T20:25:14.253Z,100604.84
2023-04-22T20:27:41.617Z,100601.34
2023-04-22T20:30:09.878Z,100600.44
2023-04-22T20:32:38.882Z,100597.84
2023-04-22T20:35:06.753Z,100597.13
2023-04-22T20:37:35.963Z,100591.94
2023-04-22T20:40:04.826Z,100598.75
2023-04-22T20:42:33.211Z,100599.25
2023-04-22T20:45:05.298Z,100592.88
2023-04-22T20:47:31.872Z,100587.41
2023-04-22T20:49:59.001Z,100593.69
2023-04-22T20:52:25.496Z,100597.38
2023-04-22T20:54:55.134Z,100593.00
2023-04-22T20:57:21.656Z,100588.69
2023-04-22T20:59:48.113Z,100587.97
2023-04-22T21:02:16.759Z,100593.00
2023-04-22T21:04:43.635Z,100590.13
2023-04-22T21:07:14.243Z,100599.31
2023-04-22T21:09:41.557Z,100599.75
2023-04-22T21:12:10.311Z,100593.75
2023-04-22T21:14:43.123Z,100595.63
2023-04-22T21:17:19.912Z,100598.84
2023-04-22T21:19:48.709Z,100586.56
2023-04-22T21:22:18.872Z,100594.88
2023-04-22T21:24:48.111Z,100591.78
2023-04-22T21:27:15.647Z,100584.81
2023-04-22T21:29:42.322Z,100584.59
2023-04-22T21:32:11.683Z,100585.31
2023-04-22T21:34:38.378Z,100586.91
2023-04-22T21:37:05.659Z,100581.69
2023-04-22T21:39:32.536Z,100576.72
2023-04-22T21:41:59.033Z,100585.31
2023-04-22T21:44:25.537Z,100578.94
2023-04-22T21:46:52.066Z,100580.53
2023-04-22T21:49:20.422Z,100570.84
2023-04-22T21:51:47.018Z,100570.38
2023-04-22T21:54:13.457Z,100576.97
2023-04-22T21:56:39.918Z,100581.78
2023-04-22T21:59:06.543Z,100583.56
2023-04-22T22:01:33.058Z,100580.69
2023-04-22T22:03:59.541Z,100589.38
2023-04-22T22:06:26.805Z,100580.41
2023-04-22T22:08:53.391Z,100590.44
2023-04-22T22:11:30.219Z,100590.81
2023-04-22T22:13:58.329Z,100590.91
2023-04-22T22:16:25.592Z,100595.72
2023-04-22T22:18:52.565Z,100591.03
2023-04-22T22:21:19.097Z,100589.81
2023-04-22T22:23:45.501Z,100586.25
2023-04-22T22:26:12.007Z,100586.44
2023-04-22T22:28:39.066Z,100596.81
2023-04-22T22:31:05.746Z,100600.41
2023-04-22T22:33:32.222Z,100591.72
2023-04-22T22:35:58.682Z,100601.09
2023-04-22T22:38:25.369Z,100599.59
2023-04-22T22:40:51.886Z,100592.63
2023-04-22T22:43:18.269Z,100587.53
2023-04-22T22:46:21.794Z,100598.22
2023-04-22T22:48:48.491Z,100602.19
2023-04-22T22:51:18.340Z,100597.22
2023-04-22T22:53:45.153Z,100603.28
2023-04-22T22:56:11.651Z,100606.13
2023-04-22T22:58:38.224Z,100604.94
2023-04-22T23:01:05.503Z,100607.53
2023-04-22T23:03:32.444Z,100607.72
2023-04-22T23:05:58.947Z,100600.94
2023-04-22T23:08:25.306Z,100597.03
2023-04-22T23:10:51.683Z,100602.69
2023-04-22T23:13:18.202Z,100607.88
2023-04-22T23:15:44.945Z,100595.19
2023-04-22T23:18:13.218Z,100600.88
2023-04-22T23:20:41.647Z,100598.16
2023-04-22T23:23:08.739Z,100592.97
2023-04-22T23:25:35.409Z,100589.56
2023-04-22T23:28:02.397Z,100591.19
2023-04-22T23:30:29.244Z,100588.47
2023-04-22T23:32:57.332Z,100591.28
2023-04-22T23:35:27.095Z,100586.81
2023-04-22T23:37:53.927Z,100586.81
2023-04-22T23:40:20.847Z,100588.31
2023-04-22T23:42:47.443Z,100579.00
2023-04-22T23:45:13.974Z,100576.06
2023-04-22T23:47:40.837Z,100575.06
2023-04-22T23:50:08.073Z,100569.56
2023-04-22T23:52:40.582Z,100564.59
2023-04-22T23:55:11.916Z,100564.19
2023-04-22T23:57:38.905Z,100565.81
